createdAt,value
2023-05-13T00:00:29.725Z,101484.69
2023-05-13T00:02:57.796Z,101481.22
2023-05-13T00:05:25.772Z,101479.50
2023-05-13T00:07:53.739Z,101479.63
2023-05-13T00:10:21.833Z,101481.50
2023-05-13T00:12:51.432Z,101479.63
2023-05-13T00:15:19.549Z,101470.63
2023-05-13T00:17:47.591Z,101473.53
2023-05-13T00:20:15.510Z,101469.91
2023-05-13T00:22:43.502Z,101469.06
2023-05-13T00:25:11.427Z,101472.81
2023-05-13T00:27:39.588Z,101477.47
2023-05-13T00:30:10.229Z,101476.44
2023-05-13T00:32:38.256Z,101480.34
2023-05-13T00:35:07.072Z,101483.97
2023-05-13T00:37:35.059Z,101479.50
2023-05-13T00:40:03.521Z,101479.50
2023-05-13T00:42:31.539Z,101478.75
2023-05-13T00:44:59.406Z,101484.25
2023-05-13T00:47:28.915Z,101487.75
2023-05-13T00:49:56.904Z,101485.28
2023-05-13T00:52:24.798Z,101486.28
2023-05-13T00:54:52.723Z,101486.47
2023-05-13T00:57:21.171Z,101484.72
2023-05-13T00:59:49.278Z,101488.47
2023-05-13T01:02:25.026Z,101482.84
2023-05-13T01:05:14.466Z,101482.09
2023-05-13T01:07:50.906Z,101478.56
2023-05-13T01:10:25.409Z,101477.69
2023-05-13T01:12:57.953Z,101481.47
2023-05-13T01:15:27.391Z,101482.78
2023-05-13T01:18:01.456Z,101487.16
2023-05-13T01:20:32.568Z,101490.91
2023-05-13T01:23:04.050Z,101483.66
2023-05-13T01:25:32.251Z,101479.31
2023-05-13T01:28:01.986Z,101473.78
2023-05-13T01:30:31.192Z,101477.56
2023-05-13T01:33:00.230Z,101479.44
2023-05-13T01:35:29.248Z,101484.25
2023-05-13T01:37:59.147Z,101485.97
2023-05-13T01:40:32.650Z,101487.00
2023-05-13T01:43:05.867Z,101485.38
2023-05-13T01:45:34.817Z,101492.78
2023-05-13T01:48:02.947Z,101484.53
2023-05-13T01:50:40.585Z,101491.03
2023-05-13T01:53:09.136Z,101488.28
2023-05-13T01:55:40.462Z,101490.91
2023-05-13T01:58:08.830Z,101483.66
2023-05-13T02:00:36.740Z,101490.16
2023-05-13T02:03:04.618Z,101485.53
2023-05-13T02:05:33.187Z,101484.66
2023-05-13T02:08:05.144Z,101486.34
2023-05-13T02:10:33.234Z,101481.47
2023-05-13T02:13:03.917Z,101475.53
2023-05-13T02:15:32.600Z,101484.78
2023-05-13T02:18:00.452Z,101486.69
2023-05-13T02:20:28.450Z,101485.66
2023-05-13T02:22:56.593Z,101480.31
2023-05-13T02:25:24.490Z,101484.78
2023-05-13T02:27:52.644Z,101488.56
2023-05-13T02:30:26.820Z,101484.66
2023-05-13T02:32:54.935Z,101477.53
2023-05-13T02:35:24.491Z,101477.53
2023-05-13T02:37:52.481Z,101481.34
2023-05-13T02:40:20.923Z,101480.47
2023-05-13T02:42:49.932Z,101483.22
2023-05-13T02:45:24.296Z,101482.34
2023-05-13T02:47:56.197Z,101482.63
2023-05-13T02:50:24.425Z,101479.00
2023-05-13T02:52:52.797Z,101481.75
2023-05-13T02:55:20.713Z,101473.63
2023-05-13T02:57:48.566Z,101473.63
2023-05-13T03:00:17.243Z,101474.50
2023-05-13T03:02:46.537Z,101473.50
2023-05-13T03:05:14.806Z,101470.00
2023-05-13T03:07:43.323Z,101471.00
2023-05-13T03:10:11.369Z,101474.63
2023-05-13T03:12:39.144Z,101468.25
2023-05-13T03:15:08.077Z,101472.94
2023-05-13T03:17:36.296Z,101473.06
2023-05-13T03:20:06.635Z,101478.44
2023-05-13T03:22:34.695Z,101483.22
2023-05-13T03:25:02.563Z,101478.72
2023-05-13T03:27:36.517Z,101475.22
2023-05-13T03:30:05.108Z,101479.84
2023-05-13T03:32:33.869Z,101481.72
2023-05-13T03:35:02.150Z,101483.63
2023-05-13T03:37:32.861Z,101474.47
2023-05-13T03:40:01.766Z,101479.28
2023-05-13T03:42:30.680Z,101481.16
2023-05-13T03:45:01.840Z,101480.56
2023-05-13T03:47:29.796Z,101488.69
2023-05-13T03:50:01.697Z,101484.31
2023-05-13T03:52:37.029Z,101492.44
2023-05-13T03:55:05.383Z,101492.44
2023-05-13T03:57:34.766Z,101487.22
2023-05-13T04:00:03.539Z,101484.47
2023-05-13T04:02:42.620Z,101496.50
2023-05-13T04:05:13.793Z,101483.75
2023-05-13T04:07:43.211Z,101500.09
2023-05-13T04:10:14.616Z,101497.53
2023-05-13T04:12:43.533Z,101497.78
2023-05-13T04:15:12.037Z,101491.16
2023-05-13T04:17:39.857Z,101498.53
2023-05-13T04:20:09.103Z,101504.03
2023-05-13T04:22:36.939Z,101499.53
2023-05-13T04:25:07.021Z,101508.53
2023-05-13T04:27:35.498Z,101507.78
2023-05-13T04:30:10.014Z,101502.28
2023-05-13T04:32:39.736Z,101511.41
2023-05-13T04:35:08.377Z,101504.03
2023-05-13T04:37:36.934Z,101509.53
2023-05-13T04:40:09.922Z,101516.63
2023-05-13T04:42:38.332Z,101519.53
2023-05-13T04:45:07.148Z,101522.13
2023-05-13T04:47:35.439Z,101511.97
2023-05-13T04:50:03.505Z,101514.59
2023-05-13T04:52:33.132Z,101515.59
2023-05-13T04:55:00.985Z,101519.09
2023-05-13T04:57:31.323Z,101523.47
2023-05-13T04:59:59.227Z,101522.59
2023-05-13T05:02:29.922Z,101524.19
2023-05-13T05:04:58.355Z,101525.63
2023-05-13T05:07:26.737Z,101525.22
2023-05-13T05:09:54.572Z,101528.41
2023-05-13T05:12:22.459Z,101533.34
2023-05-13T05:14:51.682Z,101532.50
2023-05-13T05:17:19.611Z,101528.28
2023-05-13T05:19:47.852Z,101534.72
2023-05-13T05:22:15.763Z,101537.63
2023-05-13T05:24:43.751Z,101533.41
2023-05-13T05:27:11.553Z,101539.94
2023-05-13T05:29:39.380Z,101541.13
2023-05-13T05:32:09.403Z,101534.69
2023-05-13T05:34:37.439Z,101531.38
2023-05-13T05:37:05.816Z,101534.28
2023-05-13T05:39:35.291Z,101533.38
2023-05-13T05:42:03.299Z,101532.31
2023-05-13T05:44:31.144Z,101525.81
2023-05-13T05:46:59.019Z,101521.16
2023-05-13T05:49:28.683Z,101521.66
2023-05-13T05:51:57.109Z,101524.38
2023-05-13T05:54:26.108Z,101527.66
2023-05-13T05:56:54.009Z,101521.78
2023-05-13T05:59:22.294Z,101529.88
2023-05-13T06:01:51.489Z,101524.88
2023-05-13T06:04:19.320Z,101531.06
2023-05-13T06:06:48.691Z,101540.56
2023-05-13T06:09:17.071Z,101547.72
2023-05-13T06:11:44.853Z,101556.81
2023-05-13T06:14:12.625Z,101552.97
2023-05-13T06:16:40.433Z,101544.72
2023-05-13T06:19:08.281Z,101552.09
2023-05-13T06:21:37.169Z,101550.59
2023-05-13T06:24:06.790Z,101562.75
2023-05-13T06:26:34.573Z,101564.34
2023-05-13T06:29:02.570Z,101552.97
2023-05-13T06:31:30.595Z,101567.47
2023-05-13T06:33:58.428Z,101559.03
2023-05-13T06:36:26.296Z,101555.22
2023-05-13T06:38:54.869Z,101559.75
2023-05-13T06:41:25.981Z,101555.09
2023-05-13T06:43:57.357Z,101562.66
2023-05-13T06:46:29.689Z,101560.19
2023-05-13T06:48:58.302Z,101568.19
2023-05-13T06:51:27.603Z,101567.16
2023-05-13T06:53:55.803Z,101582.75
2023-05-13T06:56:25.921Z,101579.09
2023-05-13T06:58:53.965Z,101574.44
2023-05-13T07:01:21.832Z,101568.75
2023-05-13T07:03:49.948Z,101574.97
2023-05-13T07:06:17.751Z,101559.81
2023-05-13T07:08:45.622Z,101566.72
2023-05-13T07:11:13.475Z,101564.75
2023-05-13T07:13:42.704Z,101572.78
2023-05-13T07:16:10.612Z,101557.97
2023-05-13T07:18:38.695Z,101565.69
2023-05-13T07:21:06.975Z,101559.53
2023-05-13T07:23:35.778Z,101556.84
2023-05-13T07:26:04.016Z,101552.59
2023-05-13T07:28:31.963Z,101563.88
2023-05-13T07:31:01.337Z,101564.13
2023-05-13T07:33:29.636Z,101562.25
2023-05-13T07:35:57.437Z,101571.28
2023-05-13T07:38:25.319Z,101568.34
2023-05-13T07:40:53.166Z,101565.41
2023-05-13T07:43:23.980Z,101574.59
2023-05-13T07:45:52.144Z,101586.56
2023-05-13T07:48:21.361Z,101580.84
2023-05-13T07:50:49.309Z,101580.34
2023-05-13T07:53:19.101Z,101566.84
2023-05-13T07:55:47.760Z,101580.38
2023-05-13T07:58:15.655Z,101582.13
2023-05-13T08:00:43.516Z,101580.19
2023-05-13T08:03:12.389Z,101580.38
2023-05-13T08:05:41.755Z,101579.69
2023-05-13T08:08:09.577Z,101576.56
2023-05-13T08:10:37.472Z,101574.25
2023-05-13T08:13:05.332Z,101573.94
2023-05-13T08:15:33.198Z,101573.56
2023-05-13T08:18:01.069Z,101569.41
2023-05-13T08:20:30.131Z,101566.09
2023-05-13T08:23:01.180Z,101564.38
2023-05-13T08:25:29.029Z,101563.16
2023-05-13T08:27:56.884Z,101573.72
2023-05-13T08:30:24.772Z,101563.84
2023-05-13T08:32:52.709Z,101568.84
2023-05-13T08:35:21.763Z,101564.53
2023-05-13T08:37:49.731Z,101577.88
2023-05-13T08:40:19.139Z,101584.44
2023-05-13T08:42:50.080Z,101587.56
2023-05-13T08:45:22.242Z,101586.00
2023-05-13T08:47:56.812Z,101578.19
2023-05-13T08:50:26.077Z,101586.50
2023-05-13T08:52:54.622Z,101586.34
2023-05-13T08:55:24.524Z,101587.56
2023-05-13T08:57:53.270Z,101581.84
2023-05-13T09:00:21.856Z,101572.00
2023-05-13T09:02:50.632Z,101579.25
2023-05-13T09:05:20.321Z,101572.88
2023-05-13T09:07:48.660Z,101570.78
2023-05-13T09:10:18.620Z,101572.19
2023-05-13T09:12:49.928Z,101570.63
2023-05-13T09:15:20.333Z,101574.81
2023-05-13T09:17:52.452Z,101571.31
2023-05-13T09:20:21.582Z,101572.84
2023-05-13T09:22:51.041Z,101563.63
2023-05-13T09:25:20.846Z,101568.44
2023-05-13T09:27:52.704Z,101563.88
2023-05-13T09:30:21.830Z,101556.19
2023-05-13T09:33:08.100Z,101559.94
2023-05-13T09:35:37.148Z,101547.38
2023-05-13T09:38:14.418Z,101549.19
2023-05-13T09:40:42.728Z,101538.88
2023-05-13T09:43:12.137Z,101534.59
2023-05-13T09:45:40.109Z,101530.72
2023-05-13T09:48:09.616Z,101533.94
2023-05-13T09:50:48.027Z,101537.09
2023-05-13T09:53:16.042Z,101540.06
2023-05-13T09:55:47.331Z,101538.72
2023-05-13T09:58:17.020Z,101536.44
2023-05-13T10:00:45.572Z,101532.88
2023-05-13T10:03:14.114Z,101524.16
2023-05-13T10:05:43.067Z,101525.50
2023-05-13T10:08:13.047Z,101515.03
2023-05-13T10:10:45.777Z,101509.28
2023-05-13T10:13:19.575Z,101516.19
2023-05-13T10:15:51.320Z,101510.59
2023-05-13T10:18:20.410Z,101505.22
2023-05-13T10:20:53.097Z,101505.72
2023-05-13T10:23:22.442Z,101497.53
2023-05-13T10:25:51.910Z,101503.44
2023-05-13T10:28:21.493Z,101501.50
2023-05-13T10:30:51.127Z,101497.25
2023-05-13T10:33:19.491Z,101491.00
2023-05-13T10:35:57.964Z,101492.56
2023-05-13T10:38:39.021Z,101500.06
2023-05-13T10:41:12.970Z,101495.16
2023-05-13T10:43:42.628Z,101491.50
2023-05-13T10:46:13.782Z,101498.63
2023-05-13T10:48:43.274Z,101490.28
2023-05-13T10:51:15.448Z,101486.22
2023-05-13T10:53:49.334Z,101473.81
2023-05-13T10:56:20.718Z,101468.06
2023-05-13T10:59:00.439Z,101468.53
2023-05-13T11:01:30.070Z,101476.34
2023-05-13T11:04:00.118Z,101467.19
2023-05-13T11:06:33.022Z,101474.97
2023-05-13T11:09:01.095Z,101475.63
2023-05-13T11:11:33.184Z,101469.50
2023-05-13T11:14:08.499Z,101472.88
2023-05-13T11:16:37.317Z,101470.25
2023-05-13T11:19:10.550Z,101468.44
2023-05-13T11:21:41.155Z,101459.22
2023-05-13T11:24:09.473Z,101468.91
2023-05-13T11:26:47.961Z,101458.00
2023-05-13T11:29:28.982Z,101457.19
2023-05-13T11:32:00.240Z,101453.91
2023-05-13T11:34:29.236Z,101454.09
2023-05-13T11:37:08.414Z,101455.03
2023-05-13T11:39:36.616Z,101465.13
2023-05-13T11:42:08.290Z,101463.69
2023-05-13T11:44:45.259Z,101471.56
2023-05-13T11:47:13.280Z,101470.13
2023-05-13T11:49:42.571Z,101472.13
2023-05-13T11:52:11.824Z,101462.50
2023-05-13T11:54:44.633Z,101463.81
2023-05-13T11:57:19.604Z,101455.28
2023-05-13T11:59:53.192Z,101464.94
2023-05-13T12:02:22.994Z,101462.16
2023-05-13T12:04:52.581Z,101464.56
2023-05-13T12:07:22.593Z,101464.56
2023-05-13T12:09:50.785Z,101466.09
2023-05-13T12:12:19.829Z,101461.16
2023-05-13T12:14:50.243Z,101462.91
2023-05-13T12:17:20.370Z,101464.47
2023-05-13T12:20:15.665Z,101466.88
2023-05-13T12:22:54.775Z,101473.31
2023-05-13T12:25:42.376Z,101475.84
2023-05-13T12:28:13.086Z,101472.56
2023-05-13T12:30:42.965Z,101476.44
2023-05-13T12:33:16.585Z,101470.38
2023-05-13T12:35:44.671Z,101467.72
2023-05-13T12:38:18.056Z,101474.44
2023-05-13T12:40:46.819Z,101466.47
2023-05-13T12:43:15.376Z,101480.41
2023-05-13T12:45:45.164Z,101482.59
2023-05-13T12:48:15.405Z,101491.66
2023-05-13T12:50:43.267Z,101499.81
2023-05-13T12:53:11.091Z,101495.75
2023-05-13T12:55:40.236Z,101492.59
2023-05-13T12:58:10.983Z,101489.59
2023-05-13T13:00:39.083Z,101491.34
2023-05-13T13:03:08.098Z,101483.84
2023-05-13T13:05:37.822Z,101489.00
2023-05-13T13:08:06.274Z,101482.56
2023-05-13T13:10:34.806Z,101472.06
2023-05-13T13:13:02.696Z,101487.75
2023-05-13T13:15:30.741Z,101480.91
2023-05-13T13:17:58.721Z,101493.81
2023-05-13T13:20:26.612Z,101483.47
2023-05-13T13:22:55.848Z,101491.66
2023-05-13T13:25:24.058Z,101499.16
2023-05-13T13:27:52.112Z,101486.50
2023-05-13T13:30:19.956Z,101487.94
2023-05-13T13:32:47.777Z,101480.63
2023-05-13T13:35:15.796Z,101485.75
2023-05-13T13:37:43.608Z,101474.97
2023-05-13T13:40:14.258Z,101480.94
2023-05-13T13:42:44.463Z,101481.72
2023-05-13T13:45:13.510Z,101472.25
2023-05-13T13:47:41.709Z,101466.19
2023-05-13T13:50:11.134Z,101455.63
2023-05-13T13:52:38.951Z,101459.00
2023-05-13T13:55:07.917Z,101462.19
2023-05-13T13:57:37.063Z,101461.50
2023-05-13T14:00:05.994Z,101457.41
2023-05-13T14:02:34.050Z,101456.06
2023-05-13T14:05:01.949Z,101447.88
2023-05-13T14:07:29.825Z,101450.00
2023-05-13T14:10:00.272Z,101448.63
2023-05-13T14:12:28.934Z,101443.06
2023-05-13T14:14:58.139Z,101457.88
2023-05-13T14:17:26.215Z,101451.63
2023-05-13T14:19:55.461Z,101439.59
2023-05-13T14:22:23.815Z,101441.53
2023-05-13T14:24:52.925Z,101455.25
2023-05-13T14:27:21.550Z,101451.81
2023-05-13T14:29:49.873Z,101452.00
2023-05-13T14:32:19.199Z,101445.34
2023-05-13T14:34:47.052Z,101447.50
2023-05-13T14:37:14.978Z,101453.94
2023-05-13T14:39:42.766Z,101443.84
2023-05-13T14:42:11.567Z,101442.97
2023-05-13T14:44:41.445Z,101442.97
2023-05-13T14:47:09.745Z,101450.47
2023-05-13T14:49:38.998Z,101454.13
2023-05-13T14:52:06.938Z,101443.16
2023-05-13T14:54:37.829Z,101448.75
2023-05-13T14:57:07.449Z,101447.88
2023-05-13T14:59:35.558Z,101452.59
2023-05-13T15:02:04.100Z,101451.72
2023-05-13T15:04:31.981Z,101446.16
2023-05-13T15:07:03.397Z,101449.41
2023-05-13T15:09:31.347Z,101440.56
2023-05-13T15:11:59.129Z,101438.28
2023-05-13T15:14:27.102Z,101438.91
2023-05-13T15:16:54.958Z,101447.28
2023-05-13T15:19:22.829Z,101461.03
2023-05-13T15:21:50.842Z,101501.97
2023-05-13T15:24:20.095Z,101511.19
2023-05-13T15:26:49.638Z,101510.03
2023-05-13T15:29:17.567Z,101522.16
2023-05-13T15:31:45.536Z,101517.53
2023-05-13T15:34:13.370Z,101535.41
2023-05-13T15:36:41.177Z,101525.59
2023-05-13T15:39:10.935Z,101531.63
2023-05-13T15:41:40.402Z,101545.28
2023-05-13T15:44:08.212Z,101524.22
2023-05-13T15:46:36.234Z,101523.66
2023-05-13T15:49:04.224Z,101514.78
2023-05-13T15:51:32.055Z,101511.22
2023-05-13T15:54:00.603Z,101510.44
2023-05-13T15:56:28.442Z,101507.38
2023-05-13T15:58:57.562Z,101490.25
2023-05-13T16:01:25.402Z,101482.66
2023-05-13T16:03:53.265Z,101484.09
2023-05-13T16:06:21.150Z,101478.41
2023-05-13T16:08:49.388Z,101480.34
2023-05-13T16:11:17.177Z,101497.03
2023-05-13T16:13:44.985Z,101472.56
2023-05-13T16:16:14.242Z,101469.97
2023-05-13T16:18:43.195Z,101460.44
2023-05-13T16:21:11.027Z,101453.16
2023-05-13T16:23:38.899Z,101450.38
2023-05-13T16:26:06.805Z,101450.38
2023-05-13T16:28:34.658Z,101446.56
2023-05-13T16:31:02.658Z,101456.47
2023-05-13T16:33:32.910Z,101443.06
2023-05-13T16:36:01.147Z,101451.59
2023-05-13T16:38:30.498Z,101443.94
2023-05-13T16:40:58.416Z,101445.66
2023-05-13T16:43:26.202Z,101447.41
2023-05-13T16:45:54.186Z,101448.28
2023-05-13T16:48:22.086Z,101442.53
2023-05-13T16:50:51.968Z,101439.59
2023-05-13T16:53:22.232Z,101441.50
2023-05-13T16:55:50.597Z,101440.47
2023-05-13T16:58:18.505Z,101438.56
2023-05-13T17:00:46.475Z,101438.56
2023-05-13T17:03:14.482Z,101430.22
2023-05-13T17:05:42.407Z,101441.31
2023-05-13T17:08:11.647Z,101443.72
2023-05-13T17:10:39.429Z,101441.31
2023-05-13T17:13:07.326Z,101446.00
2023-05-13T17:15:35.366Z,101448.78
2023-05-13T17:18:03.252Z,101451.75
2023-05-13T17:20:31.236Z,101461.97
2023-05-13T17:22:59.392Z,101463.03
2023-05-13T17:25:28.635Z,101465.81
2023-05-13T17:27:56.474Z,101461.47
2023-05-13T17:30:24.483Z,101462.50
2023-05-13T17:32:52.412Z,101460.78
2023-05-13T17:35:20.289Z,101456.28
2023-05-13T17:37:48.087Z,101451.59
2023-05-13T17:40:15.988Z,101461.84
2023-05-13T17:42:45.255Z,101464.41
2023-05-13T17:45:13.311Z,101469.28
2023-05-13T17:47:41.353Z,101480.41
2023-05-13T17:50:10.086Z,101485.09
2023-05-13T17:52:37.932Z,101474.16
2023-05-13T17:55:07.066Z,101469.47
2023-05-13T17:57:34.897Z,101476.06
2023-05-13T18:00:06.793Z,101477.78
2023-05-13T18:02:36.197Z,101471.72
2023-05-13T18:05:04.264Z,101472.59
2023-05-13T18:07:32.204Z,101468.94
2023-05-13T18:10:00.115Z,101477.28
2023-05-13T18:12:28.032Z,101471.94
2023-05-13T18:14:55.896Z,101470.19
2023-05-13T18:17:25.435Z,101470.84
2023-05-13T18:19:53.302Z,101462.91
2023-05-13T18:22:21.182Z,101464.81
2023-05-13T18:24:48.946Z,101465.69
2023-05-13T18:27:16.869Z,101455.63
2023-05-13T18:29:44.748Z,101452.84
2023-05-13T18:32:12.555Z,101461.16
2023-05-13T18:34:41.752Z,101454.56
2023-05-13T18:37:09.600Z,101451.09
2023-05-13T18:39:37.407Z,101453.00
2023-05-13T18:42:05.725Z,101459.59
2023-05-13T18:44:33.813Z,101455.09
2023-05-13T18:47:01.791Z,101447.81
2023-05-13T18:49:29.601Z,101452.53
2023-05-13T18:51:58.932Z,101458.91
2023-05-13T18:54:29.063Z,101450.97
2023-05-13T18:56:57.172Z,101451.81
2023-05-13T18:59:25.018Z,101453.19
2023-05-13T19:01:52.984Z,101457.03
2023-05-13T19:04:21.386Z,101466.38
2023-05-13T19:06:49.340Z,101463.81
2023-05-13T19:09:18.715Z,101469.38
2023-05-13T19:11:46.526Z,101466.94
2023-05-13T19:14:14.389Z,101474.56
2023-05-13T19:16:42.244Z,101473.03
2023-05-13T19:19:10.266Z,101464.84
2023-05-13T19:21:38.143Z,101467.78
2023-05-13T19:24:06.260Z,101469.00
2023-05-13T19:26:36.051Z,101475.41
2023-05-13T19:29:04.012Z,101473.16
2023-05-13T19:31:32.390Z,101473.50
2023-05-13T19:34:01.436Z,101481.13
2023-05-13T19:36:29.558Z,101483.25
2023-05-13T19:38:57.623Z,101478.03
2023-05-13T19:41:26.146Z,101479.25
2023-05-13T19:43:55.391Z,101480.28
2023-05-13T19:46:23.418Z,101488.25
2023-05-13T19:48:51.340Z,101485.81
2023-05-13T19:51:19.283Z,101486.19
2023-05-13T19:53:47.253Z,101486.53
2023-05-13T19:56:15.126Z,101483.94
2023-05-13T19:58:43.246Z,101483.59
2023-05-13T20:01:14.778Z,101482.88
2023-05-13T20:03:42.921Z,101485.50
2023-05-13T20:06:11.067Z,101478.22
2023-05-13T20:08:39.679Z,101489.47
2023-05-13T20:11:07.582Z,101492.75
2023-05-13T20:13:35.805Z,101483.91
2023-05-13T20:16:03.862Z,101492.41
2023-05-13T20:18:33.333Z,101497.09
2023-05-13T20:21:01.923Z,101495.84
2023-05-13T20:23:29.721Z,101491.50
2023-05-13T20:25:58.216Z,101479.88
2023-05-13T20:28:26.326Z,101486.78
2023-05-13T20:30:54.379Z,101497.03
2023-05-13T20:33:22.322Z,101486.44
2023-05-13T20:35:51.575Z,101486.63
2023-05-13T20:38:19.547Z,101477.09
2023-05-13T20:40:47.967Z,101480.03
2023-05-13T20:43:16.811Z,101480.34
2023-05-13T20:45:44.844Z,101488.16
2023-05-13T20:48:13.771Z,101483.81
2023-05-13T20:50:41.923Z,101484.16
2023-05-13T20:53:11.239Z,101488.84
2023-05-13T20:55:39.268Z,101486.72
2023-05-13T20:58:07.165Z,101486.03
2023-05-13T21:00:35.079Z,101484.63
2023-05-13T21:03:03.306Z,101486.69
2023-05-13T21:05:32.181Z,101482.38
2023-05-13T21:08:00.152Z,101480.97
2023-05-13T21:10:29.483Z,101484.75
2023-05-13T21:12:57.378Z,101478.00
2023-05-13T21:15:25.387Z,101483.84
2023-05-13T21:17:53.293Z,101485.94
2023-05-13T21:20:21.757Z,101486.44
2023-05-13T21:22:49.914Z,101486.75
2023-05-13T21:25:17.912Z,101490.00
2023-05-13T21:27:47.252Z,101491.03
2023-05-13T21:30:15.772Z,101486.88
2023-05-13T21:32:43.674Z,101489.97
2023-05-13T21:35:11.631Z,101496.69
2023-05-13T21:37:39.508Z,101488.72
2023-05-13T21:40:08.998Z,101492.53
2023-05-13T21:42:36.995Z,101491.81
2023-05-13T21:45:07.309Z,101494.59
2023-05-13T21:47:35.270Z,101488.69
2023-05-13T21:50:03.262Z,101491.44
2023-05-13T21:52:31.229Z,101485.22
2023-05-13T21:54:59.039Z,101486.22
2023-05-13T21:57:27.082Z,101485.53
2023-05-13T21:59:55.017Z,101492.09
2023-05-13T22:02:24.298Z,101492.97
2023-05-13T22:04:52.219Z,101490.69
2023-05-13T22:07:20.119Z,101497.25
2023-05-13T22:09:49.745Z,101492.91
2023-05-13T22:12:18.521Z,101491.34
2023-05-13T22:14:46.477Z,101494.44
2023-05-13T22:17:14.621Z,101487.16
2023-05-13T22:19:43.991Z,101481.78
2023-05-13T22:22:11.968Z,101487.66
2023-05-13T22:24:39.795Z,101481.41
2023-05-13T22:27:07.872Z,101480.56
2023-05-13T22:29:35.824Z,101480.72
2023-05-13T22:32:03.896Z,101488.13
2023-05-13T22:34:31.965Z,101480.88
2023-05-13T22:37:02.555Z,101486.25
2023-05-13T22:39:30.619Z,101483.81
2023-05-13T22:41:58.523Z,101480.19
2023-05-13T22:44:26.371Z,101484.84
2023-05-13T22:46:54.270Z,101487.59
2023-05-13T22:49:22.210Z,101477.72
2023-05-13T22:51:50.154Z,101480.81
2023-05-13T22:54:19.402Z,101475.28
2023-05-13T22:56:47.284Z,101476.66
2023-05-13T22:59:15.089Z,101461.38
2023-05-13T23:01:42.961Z,101461.72
2023-05-13T23:04:11.015Z,101464.63
2023-05-13T23:06:38.959Z,101452.69
2023-05-13T23:09:07.677Z,101458.38
2023-05-13T23:11:37.510Z,101452.84
2023-05-13T23:14:05.394Z,101462.31
2023-05-13T23:16:33.406Z,101453.34
2023-05-13T23:19:02.216Z,101459.03
2023-05-13T23:21:30.148Z,101455.56
2023-05-13T23:23:58.412Z,101465.03
2023-05-13T23:26:26.318Z,101453.28
2023-05-13T23:28:55.520Z,101462.44
2023-05-13T23:31:23.390Z,101455.50
2023-05-13T23:33:51.256Z,101458.41
2023-05-13T23:36:19.115Z,101456.84
2023-05-13T23:38:47.056Z,101451.47
2023-05-13T23:41:14.892Z,101450.59
2023-05-13T23:43:42.716Z,101446.97
2023-05-13T23:46:12.007Z,101446.97
2023-05-13T23:48:40.291Z,101455.56
2023-05-13T23:51:08.170Z,101448.31
2023-05-13T23:53:36.054Z,101452.28
2023-05-13T23:56:03.978Z,101457.97
2023-05-13T23:58:31.835Z,101450.84
